Pendleton, OR (97801)

06:32 PDT le 29 septembre 2016 (GMT -0700)
Sun Ridge Estates | | Change Station

Alt. 1210 ft 45.65 °N, 118.79 °W | Updated 8 minutes ago

Clear
Ciel dégagé
43.1 ° F
Paraît 43 ° F
N
0.0
Vent Variable Vent de Ouest
Gusts 0.0 mph

Aujourd'hui
Haut(e) -- | Bas -- ° F
--% Risque de précip.
Hier
Haut(e) -- | Bas -- ° F
Precip. -- pouce
Pression 29.91 pouce
Visibilité 10.0 Miles terrestres
Nuages Ciel dégagé
Refroidissement éolien 43 ° F
Point de rosée 40 ° F
Humidité 87%
Précipitations 0.00 pouce
Profondeur de la couche neigeuse Non disponible.
6:51 AM 6:37 PM
Lune descendante, 2% visible
METAR KPDT 291253Z AUTO 15006KT 10SM CLR 11/05 A2994 RMK AO2 SLP129 T01110050
Pression 29.91 pouce
Visibilité 10.0 Miles terrestres
Nuages Ciel dégagé
Refroidissement éolien 43 ° F
Point de rosée 40 ° F
Humidité 87%
Précipitations 0.00 pouce
Profondeur de la couche neigeuse Non disponible.
6:51 AM 6:37 PM
Lune descendante, 2% visible
METAR KPDT 291253Z AUTO 15006KT 10SM CLR 11/05 A2994 RMK AO2 SLP129 T01110050

10-Day Weather Forecast

Almanac

Astronomie

Sep. 29, 2016 Lever Coucher
Temps réel
Crépuscule civil
Crépuscule nautique
Crépuscule astronomique
Lune
Durée de lumière visible
Longueur du jour
Tomorrow will be .
, % of the Moon is Illuminated

Extrêmes aujourd'hui

State Highs State Lows

Community

WunderPhotos

Upload Photos

1,942,470 Photos téléchargées !

WunderBlog® & News

Nearby

Qualité de l'air

  Qualité de l'air Indice de la qualité de l'air Polluant
Not available.

Épaisseur de neige

Station Depth Altitude

Activité sismique

Ville Distance Mag. Time & Date
Minimum magnitude displayed is 2.5.

Températures des eaux côtières

Lieu Température

Stations

Stations météo à proximité

Emplacement de la station Température Refroidissement éolien Point de rosée Humidité Vent Precip. Alt. Mise à jour Type
                   

Watches & Warnings

There are currently no watches in effect.